createdAt,value
2022-11-07T00:00:27.990Z,100791.94
2022-11-07T00:02:54.791Z,100799.63
2022-11-07T00:05:22.373Z,100806.44
2022-11-07T00:07:49.143Z,100800.94
2022-11-07T00:10:15.905Z,100788.50
2022-11-07T00:12:42.634Z,100789.63
2022-11-07T00:15:09.667Z,100783.59
2022-11-07T00:17:36.334Z,100776.53
2022-11-07T00:20:03.136Z,100771.81
2022-11-07T00:22:29.896Z,100770.56
2022-11-07T00:24:56.665Z,100765.75
2022-11-07T00:27:23.411Z,100758.47
2022-11-07T00:29:50.137Z,100751.47
2022-11-07T00:32:16.803Z,100752.16
2022-11-07T00:34:43.523Z,100756.72
2022-11-07T00:37:10.194Z,100761.75
2022-11-07T00:39:36.894Z,100757.34
2022-11-07T00:42:03.768Z,100747.44
2022-11-07T00:44:30.416Z,100744.25
2022-11-07T00:46:57.148Z,100750.81
2022-11-07T00:49:23.822Z,100747.16
2022-11-07T00:51:50.500Z,100753.97
2022-11-07T00:54:17.297Z,100757.25
2022-11-07T00:56:43.972Z,100750.19
2022-11-07T00:59:10.698Z,100755.78
2022-11-07T01:01:37.727Z,100753.13
2022-11-07T01:04:33.525Z,100749.81
2022-11-07T01:07:01.877Z,100766.28
2022-11-07T01:09:28.618Z,100741.19
2022-11-07T01:11:55.315Z,100759.34
2022-11-07T01:14:22.953Z,100764.78
2022-11-07T01:16:50.582Z,100772.28
2022-11-07T01:19:17.906Z,100789.00
2022-11-07T01:21:44.607Z,100766.41
2022-11-07T01:24:16.325Z,100757.66
2022-11-07T01:26:44.419Z,100758.72
2022-11-07T01:29:11.205Z,100760.09
2022-11-07T01:31:37.905Z,100765.19
2022-11-07T01:34:04.753Z,100741.78
2022-11-07T01:36:31.451Z,100749.34
2022-11-07T01:38:58.496Z,100754.38
2022-11-07T01:41:33.098Z,100761.66
2022-11-07T01:44:07.858Z,100751.72
2022-11-07T01:46:34.596Z,100756.19
2022-11-07T01:49:17.660Z,100753.78
2022-11-07T01:51:48.471Z,100759.97
2022-11-07T01:54:17.492Z,100763.09
2022-11-07T01:56:45.009Z,100755.84
2022-11-07T01:59:15.538Z,100758.97
2022-11-07T02:01:43.028Z,100756.69
2022-11-07T02:04:10.922Z,100754.28
2022-11-07T02:06:47.074Z,100757.66
2022-11-07T02:09:14.273Z,100763.88
2022-11-07T02:11:41.360Z,100756.13
2022-11-07T02:14:08.358Z,100759.84
2022-11-07T02:16:36.225Z,100752.09
2022-11-07T02:19:04.656Z,100754.84
2022-11-07T02:21:49.944Z,100753.41
2022-11-07T02:24:25.609Z,100748.63
2022-11-07T02:26:53.559Z,100742.31
2022-11-07T02:29:20.379Z,100742.72
2022-11-07T02:31:47.071Z,100742.72
2022-11-07T02:34:13.933Z,100742.06
2022-11-07T02:36:40.668Z,100740.69
2022-11-07T02:39:07.616Z,100743.31
2022-11-07T02:41:35.205Z,100742.91
2022-11-07T02:44:08.507Z,100737.19
2022-11-07T02:46:35.554Z,100744.03
2022-11-07T02:49:02.568Z,100747.13
2022-11-07T02:51:29.970Z,100747.19
2022-11-07T02:53:56.674Z,100760.94
2022-11-07T02:56:24.032Z,100753.84
2022-11-07T02:58:52.630Z,100745.94
2022-11-07T03:01:20.061Z,100744.78
2022-11-07T03:03:48.999Z,100745.38
2022-11-07T03:06:19.072Z,100750.44
2022-11-07T03:08:45.814Z,100759.13
2022-11-07T03:11:13.885Z,100763.09
2022-11-07T03:13:40.727Z,100759.34
2022-11-07T03:16:09.116Z,100769.19
2022-11-07T03:18:36.241Z,100766.19
2022-11-07T03:21:03.821Z,100769.72
2022-11-07T03:23:30.871Z,100776.53
2022-11-07T03:25:57.787Z,100783.47
2022-11-07T03:28:24.960Z,100786.31
2022-11-07T03:30:52.031Z,100787.56
2022-11-07T03:33:18.733Z,100781.88
2022-11-07T03:35:45.431Z,100794.31
2022-11-07T03:38:12.212Z,100794.78
2022-11-07T03:40:38.893Z,100796.50
2022-11-07T03:43:05.557Z,100801.78
2022-11-07T03:45:32.258Z,100799.91
2022-11-07T03:47:58.957Z,100806.06
2022-11-07T03:50:25.692Z,100791.84
2022-11-07T03:52:52.381Z,100788.09
2022-11-07T03:55:19.162Z,100794.44
2022-11-07T03:57:46.074Z,100786.81
2022-11-07T04:00:13.752Z,100791.16
2022-11-07T04:02:40.716Z,100790.91
2022-11-07T04:05:07.995Z,100780.88
2022-11-07T04:07:34.793Z,100792.06
2022-11-07T04:10:01.458Z,100796.91
2022-11-07T04:12:46.745Z,100801.13
2022-11-07T04:15:31.985Z,100797.50
2022-11-07T04:18:00.683Z,100800.97
2022-11-07T04:20:28.439Z,100803.56
2022-11-07T04:22:55.091Z,100808.88
2022-11-07T04:25:41.787Z,100812.84
2022-11-07T04:28:08.544Z,100809.31
2022-11-07T04:30:35.260Z,100811.53
2022-11-07T04:33:02.500Z,100809.56
2022-11-07T04:35:31.451Z,100813.34
2022-11-07T04:37:59.336Z,100819.06
2022-11-07T04:40:26.343Z,100817.91
2022-11-07T04:42:53.602Z,100819.91
2022-11-07T04:45:21.680Z,100821.94
2022-11-07T04:47:48.705Z,100821.19
2022-11-07T04:50:17.226Z,100836.06
2022-11-07T04:52:43.981Z,100836.06
2022-11-07T04:55:18.009Z,100840.38
2022-11-07T04:57:44.709Z,100836.41
2022-11-07T05:00:11.900Z,100842.56
2022-11-07T05:02:38.633Z,100845.59
2022-11-07T05:05:05.873Z,100851.94
2022-11-07T05:07:32.584Z,100849.69
2022-11-07T05:09:59.237Z,100842.75
2022-11-07T05:12:25.911Z,100841.56
2022-11-07T05:14:52.578Z,100842.47
2022-11-07T05:17:19.368Z,100845.81
2022-11-07T05:19:47.883Z,100846.88
2022-11-07T05:22:33.387Z,100847.09
2022-11-07T05:25:00.440Z,100842.56
2022-11-07T05:27:27.174Z,100844.44
2022-11-07T05:29:56.883Z,100853.53
2022-11-07T05:32:23.727Z,100851.59
2022-11-07T05:34:50.385Z,100851.28
2022-11-07T05:37:17.057Z,100854.16
2022-11-07T05:39:43.734Z,100855.03
2022-11-07T05:42:10.488Z,100861.34
2022-11-07T05:44:37.498Z,100854.56
2022-11-07T05:47:04.210Z,100857.38
2022-11-07T05:49:30.898Z,100872.94
2022-11-07T05:51:57.888Z,100872.88
2022-11-07T05:54:24.930Z,100870.41
2022-11-07T05:56:55.693Z,100868.50
2022-11-07T05:59:23.677Z,100866.66
2022-11-07T06:01:51.480Z,100876.38
2022-11-07T06:04:21.587Z,100875.44
2022-11-07T06:06:48.319Z,100885.41
2022-11-07T06:09:15.223Z,100881.91
2022-11-07T06:11:42.132Z,100881.00
2022-11-07T06:14:08.891Z,100882.09
2022-11-07T06:16:35.913Z,100890.44
2022-11-07T06:19:02.886Z,100885.13
2022-11-07T06:21:30.387Z,100893.09
2022-11-07T06:23:58.061Z,100893.22
2022-11-07T06:26:24.756Z,100898.72
2022-11-07T06:28:51.450Z,100890.06
2022-11-07T06:31:18.147Z,100903.25
2022-11-07T06:33:44.835Z,100898.88
2022-11-07T06:36:12.615Z,100905.06
2022-11-07T06:38:39.880Z,100896.72
2022-11-07T06:41:11.206Z,100904.78
2022-11-07T06:43:38.347Z,100902.38
2022-11-07T06:46:08.707Z,100905.19
2022-11-07T06:48:35.428Z,100908.03
2022-11-07T06:51:04.205Z,100907.56
2022-11-07T06:53:32.182Z,100908.47
2022-11-07T06:56:03.674Z,100897.84
2022-11-07T06:58:30.412Z,100910.38
2022-11-07T07:01:04.485Z,100918.31
2022-11-07T07:03:31.285Z,100916.78
2022-11-07T07:06:02.809Z,100917.22
2022-11-07T07:08:30.047Z,100922.28
2022-11-07T07:10:57.087Z,100926.28
2022-11-07T07:13:23.760Z,100926.91
2022-11-07T07:15:54.972Z,100918.94
2022-11-07T07:18:22.201Z,100928.53
2022-11-07T07:20:49.691Z,100930.13
2022-11-07T07:23:20.565Z,100939.06
2022-11-07T07:25:48.017Z,100922.09
2022-11-07T07:28:14.765Z,100936.16
2022-11-07T07:30:41.446Z,100925.72
2022-11-07T07:33:08.128Z,100939.09
2022-11-07T07:35:34.828Z,100932.25
2022-11-07T07:38:01.503Z,100934.94
2022-11-07T07:40:28.620Z,100931.53
2022-11-07T07:42:55.438Z,100927.41
2022-11-07T07:45:25.238Z,100923.66
2022-11-07T07:47:53.170Z,100929.41
2022-11-07T07:50:19.957Z,100922.81
2022-11-07T07:52:46.618Z,100924.97
2022-11-07T07:55:13.451Z,100922.63
2022-11-07T07:57:43.248Z,100920.59
2022-11-07T08:00:11.498Z,100919.34
2022-11-07T08:02:43.970Z,100930.59
2022-11-07T08:05:12.801Z,100931.75
2022-11-07T08:07:50.158Z,100928.63
2022-11-07T08:10:40.868Z,100932.16
2022-11-07T08:13:05.903Z,100935.13
2022-11-07T08:15:32.588Z,100932.47
2022-11-07T08:18:04.437Z,100936.94
2022-11-07T08:20:33.967Z,100935.38
2022-11-07T08:23:02.074Z,100930.78
2022-11-07T08:25:29.107Z,100930.59
2022-11-07T08:27:55.889Z,100931.28
2022-11-07T08:30:22.696Z,100933.78
2022-11-07T08:32:49.387Z,100936.41
2022-11-07T08:35:16.192Z,100934.25
2022-11-07T08:37:42.823Z,100930.50
2022-11-07T08:40:09.908Z,100935.59
2022-11-07T08:42:36.580Z,100944.34
2022-11-07T08:45:03.510Z,100942.91
2022-11-07T08:47:30.238Z,100947.88
2022-11-07T08:49:56.944Z,100951.44
2022-11-07T08:52:23.627Z,100949.97
2022-11-07T08:54:50.279Z,100936.19
2022-11-07T08:57:17.119Z,100946.72
2022-11-07T08:59:43.986Z,100930.44
2022-11-07T09:05:00.675Z,100942.16
2022-11-07T09:07:27.405Z,100942.38
2022-11-07T09:09:54.136Z,100947.16
2022-11-07T09:12:20.817Z,100944.81
2022-11-07T09:14:47.492Z,100942.34
2022-11-07T09:17:14.190Z,100949.31
2022-11-07T09:19:40.879Z,100939.09
2022-11-07T09:22:07.678Z,100953.16
2022-11-07T09:24:34.528Z,100946.09
2022-11-07T09:27:01.198Z,100948.81
2022-11-07T09:29:28.100Z,100952.56
2022-11-07T09:31:54.959Z,100957.47
2022-11-07T09:34:21.634Z,100952.59
2022-11-07T09:36:48.707Z,100950.34
2022-11-07T09:39:15.377Z,100955.22
2022-11-07T09:42:07.259Z,100954.00
2022-11-07T09:44:37.458Z,100953.22
2022-11-07T09:47:11.479Z,100956.41
2022-11-07T09:49:48.619Z,100953.69
2022-11-07T09:52:24.933Z,100950.97
2022-11-07T09:54:59.841Z,100952.53
2022-11-07T09:57:27.701Z,100954.19
2022-11-07T09:59:55.440Z,100951.78
2022-11-07T10:02:26.073Z,100950.09
2022-11-07T10:04:57.577Z,100944.19
2022-11-07T10:08:05.846Z,100940.34
2022-11-07T10:10:51.205Z,100944.19
2022-11-07T10:13:23.953Z,100942.28
2022-11-07T10:16:18.703Z,100943.25
2022-11-07T10:18:52.985Z,100947.25
2022-11-07T10:24:31.105Z,100946.03
2022-11-07T10:26:58.560Z,100952.75
2022-11-07T10:29:29.368Z,100956.47
2022-11-07T10:32:03.312Z,100959.53
2022-11-07T10:34:36.467Z,100954.91
2022-11-07T10:37:04.272Z,100944.75
2022-11-07T10:39:32.241Z,100946.19
2022-11-07T10:42:15.460Z,100954.50
2022-11-07T10:44:43.239Z,100954.63
2022-11-07T10:47:21.293Z,100960.81
2022-11-07T10:49:55.460Z,100949.66
2022-11-07T10:52:22.797Z,100951.84
2022-11-07T10:54:49.524Z,100951.31
2022-11-07T10:57:19.093Z,100941.13
2022-11-07T10:59:57.456Z,100948.09
2022-11-07T11:02:53.930Z,100946.00
2022-11-07T11:05:42.278Z,100951.41
2022-11-07T11:08:18.797Z,100939.25
2022-11-07T11:10:46.573Z,100945.13
2022-11-07T11:13:33.848Z,100941.91
2022-11-07T11:16:21.332Z,100947.59
2022-11-07T11:18:52.387Z,100943.69
2022-11-07T11:21:19.212Z,100948.56
2022-11-07T11:23:46.556Z,100937.25
2022-11-07T11:26:48.813Z,100942.00
2022-11-07T11:29:41.418Z,100939.50
2022-11-07T11:32:15.294Z,100934.38
2022-11-07T11:35:08.710Z,100940.88
2022-11-07T11:37:38.769Z,100946.03
2022-11-07T11:40:13.640Z,100945.78
2022-11-07T11:42:46.693Z,100939.78
2022-11-07T11:45:27.019Z,100940.66
2022-11-07T11:47:59.516Z,100933.06
2022-11-07T11:50:34.763Z,100932.47
2022-11-07T11:53:01.709Z,100939.06
2022-11-07T11:55:37.069Z,100931.06
2022-11-07T11:58:03.706Z,100926.53
2022-11-07T12:00:32.509Z,100922.13
2022-11-07T12:03:06.828Z,100930.38
2022-11-07T12:05:56.561Z,100930.94
2022-11-07T12:08:26.262Z,100929.13
2022-11-07T12:11:00.105Z,100931.47
2022-11-07T12:13:32.774Z,100931.41
2022-11-07T12:16:38.629Z,100930.75
2022-11-07T12:19:29.654Z,100925.88
2022-11-07T12:22:06.432Z,100931.28
2022-11-07T12:24:45.273Z,100929.69
2022-11-07T12:27:27.454Z,100933.25
2022-11-07T12:30:00.295Z,100929.00
2022-11-07T12:32:39.440Z,100932.13
2022-11-07T12:35:27.861Z,100926.41
2022-11-07T12:38:25.221Z,100939.50
2022-11-07T12:41:07.420Z,100932.06
2022-11-07T12:44:01.603Z,100932.94
2022-11-07T12:46:54.311Z,100939.59
2022-11-07T12:49:30.778Z,100941.50
2022-11-07T12:52:01.024Z,100937.69
2022-11-07T12:55:03.112Z,100933.25
2022-11-07T12:57:34.267Z,100934.75
2022-11-07T13:00:12.117Z,100928.78
2022-11-07T13:03:00.647Z,100928.66
2022-11-07T13:05:38.831Z,100937.38
2022-11-07T13:08:27.003Z,100944.56
2022-11-07T13:10:59.864Z,100942.59
2022-11-07T13:13:46.088Z,100935.38
2022-11-07T13:16:27.432Z,100947.25
2022-11-07T13:18:54.394Z,100939.88
2022-11-07T13:21:21.480Z,100940.28
2022-11-07T13:23:48.772Z,100933.66
2022-11-07T13:26:45.061Z,100943.75
2022-11-07T13:29:04.715Z,100944.47
2022-11-07T13:31:34.157Z,100941.22
2022-11-07T13:34:19.800Z,100938.34
2022-11-07T13:36:47.946Z,100940.97
2022-11-07T13:39:14.888Z,100942.97
2022-11-07T13:41:44.657Z,100951.88
2022-11-07T13:44:20.232Z,100942.66
2022-11-07T13:46:49.972Z,100950.72
2022-11-07T13:49:16.772Z,100950.91
2022-11-07T13:51:49.795Z,100940.41
2022-11-07T13:54:38.461Z,100942.31
2022-11-07T13:57:27.465Z,100935.78
2022-11-07T13:59:58.500Z,100939.25
2022-11-07T14:02:27.753Z,100940.97
2022-11-07T14:05:15.289Z,100940.78
2022-11-07T14:07:46.937Z,100932.25
2022-11-07T14:10:26.258Z,100931.19
2022-11-07T14:13:13.800Z,100934.50
2022-11-07T14:15:47.729Z,100944.47
2022-11-07T14:18:16.338Z,100942.66
2022-11-07T14:20:54.763Z,100935.59
2022-11-07T14:23:23.566Z,100936.44
2022-11-07T14:25:58.292Z,100929.44
2022-11-07T14:28:25.439Z,100933.69
2022-11-07T14:30:53.144Z,100928.78
2022-11-07T14:33:22.315Z,100928.69
2022-11-07T14:35:51.358Z,100924.44
2022-11-07T14:38:22.630Z,100929.31
2022-11-07T14:40:50.693Z,100925.72
2022-11-07T14:43:19.605Z,100917.22
2022-11-07T14:46:11.393Z,100925.66
2022-11-07T14:48:34.743Z,100915.91
2022-11-07T14:51:02.447Z,100917.69
2022-11-07T14:53:39.969Z,100910.06
2022-11-07T14:56:08.691Z,100915.41
2022-11-07T14:58:35.606Z,100918.16
2022-11-07T15:01:08.616Z,100924.13
2022-11-07T15:03:51.161Z,100916.16
2022-11-07T15:06:23.893Z,100917.66
2022-11-07T15:09:05.972Z,100917.19
2022-11-07T15:11:38.186Z,100916.72
2022-11-07T15:14:07.227Z,100916.50
2022-11-07T15:16:39.172Z,100923.97
2022-11-07T15:19:08.913Z,100925.72
2022-11-07T15:21:50.522Z,100920.66
2022-11-07T15:24:44.227Z,100923.94
2022-11-07T15:27:13.872Z,100927.13
2022-11-07T15:29:59.124Z,100925.53
2022-11-07T15:38:17.953Z,100928.25
2022-11-07T15:40:45.287Z,100929.66
2022-11-07T15:43:12.074Z,100928.09
2022-11-07T15:45:40.286Z,100924.44
2022-11-07T15:48:08.136Z,100926.75
2022-11-07T15:50:41.365Z,100932.78
2022-11-07T15:53:15.007Z,100934.53
2022-11-07T15:55:41.882Z,100934.94
2022-11-07T15:58:09.808Z,100943.06
2022-11-07T16:00:36.503Z,100943.34
2022-11-07T16:03:03.525Z,100936.66
2022-11-07T16:05:30.515Z,100940.38
2022-11-07T16:08:07.527Z,100946.66
2022-11-07T16:10:34.446Z,100945.44
2022-11-07T16:13:04.971Z,100940.72
2022-11-07T16:15:33.599Z,100943.56
2022-11-07T16:18:00.407Z,100945.38
2022-11-07T16:20:27.371Z,100945.53
2022-11-07T16:22:55.186Z,100944.72
2022-11-07T16:25:24.300Z,100954.66
2022-11-07T16:27:53.428Z,100950.06
2022-11-07T16:30:21.048Z,100946.88
2022-11-07T16:32:48.515Z,100947.47
2022-11-07T16:35:15.693Z,100953.22
2022-11-07T16:37:42.471Z,100943.91
2022-11-07T16:40:14.301Z,100954.84
2022-11-07T16:42:41.262Z,100963.69
2022-11-07T16:45:08.501Z,100952.53
2022-11-07T16:47:38.075Z,100961.34
2022-11-07T16:50:05.801Z,100963.88
2022-11-07T16:52:32.813Z,100963.75
2022-11-07T16:55:01.488Z,100963.81
2022-11-07T16:57:28.440Z,100957.72
2022-11-07T16:59:55.268Z,100952.53
2022-11-07T17:02:24.665Z,100964.91
2022-11-07T17:04:54.049Z,100964.00
2022-11-07T17:07:22.836Z,100962.13
2022-11-07T17:09:50.171Z,100964.75
2022-11-07T17:12:19.221Z,100977.69
2022-11-07T17:14:46.383Z,100967.28
2022-11-07T17:17:13.949Z,100966.75
2022-11-07T17:19:40.776Z,100972.38
2022-11-07T17:22:07.776Z,100975.75
2022-11-07T17:24:34.421Z,100973.31
2022-11-07T17:27:01.206Z,100980.19
2022-11-07T17:29:28.055Z,100981.38
2022-11-07T17:31:54.844Z,100986.34
2022-11-07T17:34:21.788Z,100992.28
2022-11-07T17:36:50.952Z,100991.47
2022-11-07T17:39:19.876Z,100992.22
2022-11-07T17:41:48.599Z,100998.59
2022-11-07T17:44:16.280Z,101003.59
2022-11-07T17:46:45.308Z,101000.91
2022-11-07T17:49:15.033Z,101006.19
2022-11-07T17:51:42.246Z,100998.44
2022-11-07T17:54:15.043Z,101000.53
2022-11-07T17:56:42.668Z,100999.06
2022-11-07T17:59:14.555Z,101006.50
2022-11-07T18:01:41.739Z,101000.97
2022-11-07T18:04:13.458Z,101002.84
2022-11-07T18:06:42.652Z,101010.34
2022-11-07T18:09:14.629Z,101008.91
2022-11-07T18:11:41.668Z,101015.88
2022-11-07T18:14:10.371Z,101011.72
2022-11-07T18:16:37.501Z,101014.69
2022-11-07T18:19:05.207Z,101015.94
2022-11-07T18:21:32.613Z,101008.91
2022-11-07T18:23:59.290Z,101019.81
2022-11-07T18:26:32.080Z,101013.38
2022-11-07T18:29:04.720Z,101011.84
2022-11-07T18:31:31.725Z,101023.44
2022-11-07T18:34:00.186Z,101021.50
2022-11-07T18:36:27.488Z,101024.97
2022-11-07T18:38:54.199Z,101015.09
2022-11-07T18:41:22.785Z,101016.63
2022-11-07T18:43:50.138Z,101013.03
2022-11-07T18:46:19.432Z,101012.28
2022-11-07T18:48:46.601Z,101013.84
2022-11-07T18:51:23.230Z,101013.72
2022-11-07T18:53:51.543Z,101014.38
2022-11-07T18:56:18.935Z,101013.25
2022-11-07T18:58:46.198Z,101022.56
2022-11-07T19:01:23.659Z,101012.25
2022-11-07T19:03:52.098Z,101019.81
2022-11-07T19:06:20.939Z,101021.56
2022-11-07T19:08:49.243Z,101019.25
2022-11-07T19:11:21.792Z,101021.66
2022-11-07T19:13:48.546Z,101017.69
2022-11-07T19:16:17.072Z,101026.84
2022-11-07T19:18:49.723Z,101021.34
2022-11-07T19:21:19.880Z,101024.03
2022-11-07T19:23:47.169Z,101022.94
2022-11-07T19:26:14.219Z,101025.78
2022-11-07T19:28:41.023Z,101019.47
2022-11-07T19:31:10.909Z,101020.44
2022-11-07T19:33:37.619Z,101022.69
2022-11-07T19:36:16.570Z,101029.44
2022-11-07T19:38:44.311Z,101019.94
2022-11-07T19:41:12.364Z,101031.03
2022-11-07T19:43:39.490Z,101026.69
2022-11-07T19:46:11.793Z,101023.41
2022-11-07T19:48:38.629Z,101017.59
2022-11-07T19:51:10.926Z,101026.63
2022-11-07T19:53:37.680Z,101022.72
2022-11-07T19:56:09.409Z,101001.06
2022-11-07T19:58:37.034Z,101029.69
2022-11-07T20:01:13.227Z,101027.31
2022-11-07T20:03:43.550Z,101022.53
2022-11-07T20:06:11.182Z,101033.44
2022-11-07T20:08:38.613Z,101027.28
2022-11-07T20:11:05.556Z,101028.25
2022-11-07T20:13:32.217Z,101034.09
2022-11-07T20:15:58.915Z,101031.25
2022-11-07T20:18:25.667Z,101034.84
2022-11-07T20:21:00.089Z,101036.22
2022-11-07T20:23:26.772Z,101037.91
2022-11-07T20:25:53.448Z,101036.81
2022-11-07T20:28:20.315Z,101037.94
2022-11-07T20:30:47.189Z,101042.31
2022-11-07T20:33:14.319Z,101036.63
2022-11-07T20:35:41.217Z,101051.97
2022-11-07T20:38:09.994Z,101034.16
2022-11-07T20:40:37.450Z,101046.19
2022-11-07T20:43:05.445Z,101048.41
2022-11-07T20:45:32.349Z,101054.41
2022-11-07T20:47:59.098Z,101048.03
2022-11-07T20:50:25.927Z,101057.19
2022-11-07T20:52:57.324Z,101062.28
2022-11-07T20:55:25.984Z,101060.56
2022-11-07T20:57:52.876Z,101061.69
2022-11-07T21:00:19.853Z,101064.38
2022-11-07T21:02:47.694Z,101060.81
2022-11-07T21:05:18.437Z,101058.69
2022-11-07T21:07:45.522Z,101064.16
2022-11-07T21:10:12.541Z,101065.66
2022-11-07T21:12:39.508Z,101062.34
2022-11-07T21:15:07.093Z,101059.94
2022-11-07T21:17:33.916Z,101059.88
2022-11-07T21:20:00.695Z,101067.56
2022-11-07T21:22:29.589Z,101062.59
2022-11-07T21:24:56.886Z,101064.16
2022-11-07T21:27:23.740Z,101067.66
2022-11-07T21:29:51.695Z,101058.09
2022-11-07T21:32:18.390Z,101065.00
2022-11-07T21:34:46.385Z,101058.03
2022-11-07T21:37:13.043Z,101065.38
2022-11-07T21:39:39.855Z,101066.19
2022-11-07T21:42:06.532Z,101066.44
2022-11-07T21:44:33.328Z,101070.94
2022-11-07T21:47:00.275Z,101063.75
2022-11-07T21:49:27.277Z,101067.09
2022-11-07T21:51:54.162Z,101064.72
2022-11-07T21:54:20.880Z,101070.25
2022-11-07T21:56:47.707Z,101066.88
2022-11-07T21:59:14.407Z,101067.38
2022-11-07T22:01:41.428Z,101069.88
2022-11-07T22:04:11.812Z,101067.59
2022-11-07T22:06:41.788Z,101066.88
2022-11-07T22:09:09.590Z,101071.47
2022-11-07T22:11:36.359Z,101064.75
2022-11-07T22:14:03.655Z,101065.53
2022-11-07T22:16:30.584Z,101067.56
2022-11-07T22:18:58.953Z,101059.31
2022-11-07T22:21:26.043Z,101055.59
2022-11-07T22:23:52.814Z,101053.66
2022-11-07T22:26:21.669Z,101065.31
2022-11-07T22:28:49.067Z,101072.53
2022-11-07T22:31:20.875Z,101069.44
2022-11-07T22:33:47.870Z,101074.59
2022-11-07T22:36:14.877Z,101063.59
2022-11-07T22:38:42.340Z,101065.47
2022-11-07T22:41:11.764Z,101068.13
2022-11-07T22:43:38.649Z,101067.94
2022-11-07T22:46:08.156Z,101068.16
2022-11-07T22:48:35.201Z,101072.28
2022-11-07T22:51:06.313Z,101062.44
2022-11-07T22:53:33.697Z,101062.41
2022-11-07T22:56:20.001Z,101059.59
2022-11-07T22:58:47.620Z,101053.44
2022-11-07T23:01:17.381Z,101058.00
2022-11-07T23:03:44.207Z,101061.97
2022-11-07T23:06:11.179Z,101066.81
2022-11-07T23:08:38.580Z,101058.91
2022-11-07T23:11:44.068Z,101058.91
2022-11-07T23:14:01.811Z,101062.59
2022-11-07T23:16:34.112Z,101058.34
2022-11-07T23:19:03.240Z,101055.41
2022-11-07T23:21:30.308Z,101051.72
2022-11-07T23:23:58.399Z,101050.13
2022-11-07T23:26:26.036Z,101053.34
2022-11-07T23:28:53.367Z,101060.16
2022-11-07T23:31:20.317Z,101054.75
2022-11-07T23:33:47.027Z,101064.75
2022-11-07T23:36:15.640Z,101061.25
2022-11-07T23:38:43.422Z,101053.28
2022-11-07T23:41:12.628Z,101053.84
2022-11-07T23:43:39.409Z,101051.66
2022-11-07T23:46:24.749Z,101053.81
2022-11-07T23:49:14.434Z,101047.72
2022-11-07T23:51:42.143Z,101049.03
2022-11-07T23:54:27.455Z,101045.50
2022-11-07T23:56:54.228Z,101041.91
2022-11-07T23:59:39.598Z,101042.72
